createdAt,value
2022-11-21T00:00:39.769Z,71.03
2022-11-21T00:03:12.730Z,71.03
2022-11-21T00:05:46.213Z,71.17
2022-11-21T00:08:19.739Z,71.00
2022-11-21T00:10:51.472Z,71.15
2022-11-21T00:13:23.335Z,71.07
2022-11-21T00:15:54.783Z,71.14
2022-11-21T00:18:26.268Z,71.19
2022-11-21T00:20:57.733Z,71.12
2022-11-21T00:23:29.349Z,71.21
2022-11-21T00:26:04.327Z,71.11
2022-11-21T00:28:36.369Z,71.08
2022-11-21T00:31:08.392Z,71.28
2022-11-21T00:33:40.203Z,71.17
2022-11-21T00:36:12.365Z,71.16
2022-11-21T00:38:43.864Z,71.39
2022-11-21T00:41:15.577Z,71.30
2022-11-21T00:43:47.032Z,71.36
2022-11-21T00:46:18.556Z,71.46
2022-11-21T00:48:50.313Z,71.32
2022-11-21T00:51:21.957Z,71.32
2022-11-21T00:53:53.726Z,71.47
2022-11-21T00:56:25.267Z,71.38
2022-11-21T00:58:56.722Z,71.54
2022-11-21T01:01:28.246Z,71.49
2022-11-21T01:04:00.033Z,71.55
2022-11-21T01:06:31.601Z,71.55
2022-11-21T01:09:03.104Z,71.34
2022-11-21T01:11:34.623Z,71.56
2022-11-21T01:14:06.476Z,71.49
2022-11-21T01:16:37.993Z,71.52
2022-11-21T01:19:10.004Z,71.37
2022-11-21T01:21:41.513Z,71.47
2022-11-21T01:24:14.512Z,71.39
2022-11-21T01:26:46.010Z,71.26
2022-11-21T01:29:17.506Z,71.20
2022-11-21T01:31:50.058Z,71.25
2022-11-21T01:34:21.753Z,71.32
2022-11-21T01:36:53.260Z,71.34
2022-11-21T01:39:24.977Z,71.48
2022-11-21T01:41:56.489Z,71.42
2022-11-21T01:44:47.017Z,71.36
2022-11-21T01:47:18.633Z,71.31
2022-11-21T01:49:50.984Z,71.19
2022-11-21T01:52:27.231Z,71.13
2022-11-21T01:55:02.200Z,71.09
2022-11-21T01:57:39.039Z,70.89
2022-11-21T02:00:14.004Z,71.11
2022-11-21T02:02:50.716Z,70.99
2022-11-21T02:05:27.195Z,70.98
2022-11-21T02:08:15.067Z,71.20
2022-11-21T02:10:55.998Z,71.16
2022-11-21T02:13:28.199Z,71.07
2022-11-21T02:16:00.181Z,71.06
2022-11-21T02:18:31.710Z,71.23
2022-11-21T02:21:10.249Z,71.25
2022-11-21T02:23:46.709Z,71.26
2022-11-21T02:26:18.731Z,71.47
2022-11-21T02:28:50.492Z,71.37
2022-11-21T02:31:22.122Z,71.40
2022-11-21T02:33:53.726Z,71.40
2022-11-21T02:36:39.587Z,71.20
2022-11-21T02:39:15.756Z,71.32
2022-11-21T02:41:54.616Z,71.41
2022-11-21T02:44:30.770Z,71.37
2022-11-21T02:47:02.512Z,71.19
2022-11-21T02:49:43.402Z,71.19
2022-11-21T02:52:14.932Z,71.42
2022-11-21T02:54:46.383Z,71.30
2022-11-21T02:57:17.906Z,71.13
2022-11-21T02:59:49.693Z,71.32
2022-11-21T03:02:21.206Z,71.34
2022-11-21T03:04:52.745Z,71.16
2022-11-21T03:07:24.327Z,71.06
2022-11-21T03:09:56.152Z,70.98
2022-11-21T03:12:27.655Z,71.00
2022-11-21T03:14:59.114Z,70.95
2022-11-21T03:17:31.145Z,71.01
2022-11-21T03:20:02.768Z,70.88
2022-11-21T03:22:34.619Z,70.96
2022-11-21T03:25:06.940Z,70.91
2022-11-21T03:27:38.527Z,71.01
2022-11-21T03:30:12.660Z,71.07
2022-11-21T03:32:44.131Z,71.23
2022-11-21T03:35:15.847Z,71.23
2022-11-21T03:37:48.054Z,71.15
2022-11-21T03:40:19.668Z,71.12
2022-11-21T03:42:51.204Z,71.16
2022-11-21T03:45:22.671Z,71.15
2022-11-21T03:47:54.152Z,71.10
2022-11-21T03:50:25.884Z,71.20
2022-11-21T03:52:57.415Z,71.10
2022-11-21T03:55:28.920Z,71.19
2022-11-21T03:58:00.383Z,71.34
2022-11-21T04:00:32.040Z,71.34
2022-11-21T04:03:03.546Z,71.33
2022-11-21T04:05:35.079Z,71.34
2022-11-21T04:08:07.313Z,71.43
2022-11-21T04:10:38.791Z,71.28
2022-11-21T04:13:10.527Z,71.29
2022-11-21T04:15:43.613Z,71.48
2022-11-21T04:18:15.683Z,71.41
2022-11-21T04:20:47.314Z,71.30
2022-11-21T04:23:18.817Z,71.21
2022-11-21T04:25:50.422Z,71.17
2022-11-21T04:28:22.484Z,71.30
2022-11-21T04:30:55.177Z,71.32
2022-11-21T04:33:27.570Z,71.56
2022-11-21T04:35:59.309Z,71.64
2022-11-21T04:38:30.880Z,71.70
2022-11-21T04:41:04.894Z,71.81
2022-11-21T04:43:36.614Z,71.80
2022-11-21T04:46:08.142Z,72.02
2022-11-21T04:48:39.629Z,71.95
2022-11-21T04:51:11.215Z,72.17
2022-11-21T04:53:43.298Z,72.02
2022-11-21T04:56:16.553Z,72.01
2022-11-21T04:58:48.338Z,72.09
2022-11-21T05:01:20.011Z,72.17
2022-11-21T05:03:53.343Z,72.13
2022-11-21T05:06:25.861Z,72.34
2022-11-21T05:08:57.352Z,72.38
2022-11-21T05:11:46.852Z,72.32
2022-11-21T05:14:18.664Z,72.29
2022-11-21T05:16:50.214Z,72.26
2022-11-21T05:19:21.755Z,72.56
2022-11-21T05:21:53.836Z,72.50
2022-11-21T05:24:25.745Z,72.50
2022-11-21T05:26:58.037Z,72.48
2022-11-21T05:29:29.544Z,72.50
2022-11-21T05:32:01.168Z,72.80
2022-11-21T05:34:32.696Z,72.60
2022-11-21T05:37:04.199Z,72.59
2022-11-21T05:39:35.780Z,72.87
2022-11-21T05:42:07.616Z,72.92
2022-11-21T05:44:39.143Z,72.74
2022-11-21T05:47:10.654Z,73.05
2022-11-21T05:49:42.143Z,73.27
2022-11-21T05:52:13.669Z,73.25
2022-11-21T05:54:46.263Z,73.38
2022-11-21T05:57:18.908Z,73.48
2022-11-21T05:59:50.395Z,73.48
2022-11-21T06:02:39.606Z,73.57
2022-11-21T06:05:11.848Z,73.55
2022-11-21T06:07:43.461Z,73.59
2022-11-21T06:10:15.069Z,73.58
2022-11-21T06:12:46.667Z,73.51
2022-11-21T06:15:18.521Z,73.51
2022-11-21T06:17:50.171Z,73.36
2022-11-21T06:20:22.259Z,73.42
2022-11-21T06:22:54.869Z,73.32
2022-11-21T06:25:26.462Z,73.37
2022-11-21T06:28:00.245Z,73.25
2022-11-21T06:30:31.787Z,73.25
2022-11-21T06:33:06.831Z,73.26
2022-11-21T06:35:40.620Z,73.25
2022-11-21T06:38:13.558Z,73.30
2022-11-21T06:40:45.147Z,73.45
2022-11-21T06:43:16.690Z,73.27
2022-11-21T06:45:49.050Z,73.27
2022-11-21T06:48:20.664Z,73.38
2022-11-21T06:50:52.213Z,73.47
2022-11-21T06:53:23.817Z,73.53
2022-11-21T06:55:59.186Z,73.56
2022-11-21T06:58:31.056Z,73.66
2022-11-21T07:01:07.021Z,73.48
2022-11-21T07:03:38.959Z,73.52
2022-11-21T07:06:10.795Z,73.57
2022-11-21T07:08:42.554Z,73.53
2022-11-21T07:11:31.077Z,73.37
2022-11-21T07:14:07.712Z,73.58
2022-11-21T07:16:40.929Z,73.44
2022-11-21T07:19:13.068Z,73.34
2022-11-21T07:21:44.669Z,73.40
2022-11-21T07:24:16.461Z,73.41
2022-11-21T07:26:48.123Z,73.44
2022-11-21T07:29:19.724Z,73.51
2022-11-21T07:31:51.262Z,73.53
2022-11-21T07:34:22.839Z,73.49
2022-11-21T07:36:54.899Z,73.34
2022-11-21T07:39:26.703Z,74.28
2022-11-21T07:41:58.543Z,74.61
2022-11-21T07:44:30.049Z,74.16
2022-11-21T07:47:01.648Z,73.65
2022-11-21T07:49:33.604Z,73.24
2022-11-21T07:52:05.390Z,73.20
2022-11-21T07:54:37.092Z,73.29
2022-11-21T07:57:08.775Z,72.96
2022-11-21T07:59:40.467Z,72.89
2022-11-21T08:02:20.462Z,72.62
2022-11-21T08:04:52.434Z,72.26
2022-11-21T08:07:25.749Z,71.86
2022-11-21T08:09:57.397Z,71.62
2022-11-21T08:12:29.200Z,71.85
2022-11-21T08:15:00.785Z,71.68
2022-11-21T08:17:32.283Z,71.68
2022-11-21T08:20:04.612Z,71.75
2022-11-21T08:22:41.525Z,72.14
2022-11-21T08:25:13.506Z,71.48
2022-11-21T08:27:45.155Z,71.50
2022-11-21T08:30:17.732Z,71.25
2022-11-21T08:32:49.275Z,70.91
2022-11-21T08:35:21.206Z,70.77
2022-11-21T08:37:55.972Z,70.84
2022-11-21T08:40:28.850Z,70.91
2022-11-21T08:43:01.239Z,70.94
2022-11-21T08:45:33.561Z,70.94
2022-11-21T08:48:05.663Z,71.03
2022-11-21T08:50:37.218Z,71.04
2022-11-21T08:53:09.750Z,71.29
2022-11-21T08:55:41.393Z,71.39
2022-11-21T08:58:12.901Z,71.44
2022-11-21T09:00:44.526Z,71.31
2022-11-21T09:03:21.470Z,71.30
2022-11-21T09:05:56.845Z,71.56
2022-11-21T09:08:28.455Z,71.70
2022-11-21T09:11:00.299Z,71.51
2022-11-21T09:13:31.910Z,71.67
2022-11-21T09:16:36.442Z,71.53
2022-11-21T09:19:06.438Z,71.54
2022-11-21T09:21:38.243Z,71.63
2022-11-21T09:24:10.139Z,71.66
2022-11-21T09:26:41.713Z,71.96
2022-11-21T09:29:15.136Z,72.22
2022-11-21T09:31:47.105Z,72.08
2022-11-21T09:34:19.483Z,72.30
2022-11-21T09:36:50.975Z,72.18
2022-11-21T09:39:23.110Z,72.40
2022-11-21T09:42:09.016Z,72.43
2022-11-21T09:44:59.422Z,72.60
2022-11-21T09:47:33.576Z,72.70
2022-11-21T09:50:07.833Z,72.78
2022-11-21T09:52:47.118Z,73.00
2022-11-21T09:55:29.376Z,73.00
2022-11-21T09:58:04.393Z,73.06
2022-11-21T10:00:36.050Z,72.63
2022-11-21T10:03:15.601Z,72.67
2022-11-21T10:05:53.701Z,72.64
2022-11-21T10:08:35.896Z,72.45
2022-11-21T10:11:20.182Z,71.75
2022-11-21T10:14:05.130Z,71.56
2022-11-21T10:16:44.983Z,70.93
2022-11-21T10:19:35.049Z,70.73
2022-11-21T10:22:27.784Z,70.97
2022-11-21T10:25:04.708Z,70.57
2022-11-21T10:27:42.440Z,70.38
2022-11-21T10:30:19.790Z,70.25
2022-11-21T10:32:55.825Z,70.05
2022-11-21T10:35:36.393Z,70.07
2022-11-21T10:38:22.503Z,69.97
2022-11-21T10:41:02.072Z,69.71
2022-11-21T10:43:58.977Z,69.93
2022-11-21T10:46:30.460Z,69.74
2022-11-21T10:49:03.525Z,69.23
2022-11-21T10:51:45.315Z,68.97
2022-11-21T10:54:36.564Z,68.87
2022-11-21T10:57:17.044Z,68.62
2022-11-21T11:00:00.845Z,68.71
2022-11-21T11:02:32.362Z,68.68
2022-11-21T11:05:29.984Z,69.05
2022-11-21T11:08:07.695Z,68.81
2022-11-21T11:10:40.890Z,68.57
2022-11-21T11:13:45.681Z,68.48
2022-11-21T11:16:21.335Z,68.31
2022-11-21T11:19:00.347Z,68.40
2022-11-21T11:21:44.236Z,68.34
2022-11-21T11:24:27.706Z,68.36
2022-11-21T11:27:04.178Z,68.39
2022-11-21T11:29:50.214Z,68.32
2022-11-21T11:32:22.227Z,68.44
2022-11-21T11:35:01.292Z,68.54
2022-11-21T11:37:40.973Z,68.55
2022-11-21T11:40:27.059Z,68.73
2022-11-21T11:43:30.220Z,68.93
2022-11-21T11:46:52.574Z,69.16
2022-11-21T11:49:32.375Z,69.11
2022-11-21T11:52:07.534Z,69.12
2022-11-21T11:54:48.629Z,69.25
2022-11-21T11:57:21.647Z,69.39
2022-11-21T12:00:01.836Z,69.42
2022-11-21T12:02:49.946Z,69.67
2022-11-21T12:05:26.020Z,69.72
2022-11-21T12:11:34.107Z,69.66
2022-11-21T12:14:34.860Z,69.67
2022-11-21T12:17:10.579Z,69.62
2022-11-21T12:19:42.168Z,69.62
2022-11-21T12:22:14.264Z,69.81
2022-11-21T12:24:45.904Z,69.80
2022-11-21T12:27:28.603Z,69.89
2022-11-21T12:30:26.633Z,69.97
2022-11-21T12:33:08.975Z,70.03
2022-11-21T12:36:04.842Z,70.22
2022-11-21T12:39:06.737Z,70.19
2022-11-21T12:42:12.000Z,70.15
2022-11-21T12:45:00.814Z,70.08
2022-11-21T12:48:14.441Z,70.03
2022-11-21T12:51:11.221Z,70.06
2022-11-21T12:54:10.518Z,70.21
2022-11-21T12:56:49.590Z,69.90
2022-11-21T12:59:22.763Z,69.66
2022-11-21T13:02:04.557Z,69.59
2022-11-21T13:04:39.875Z,69.64
2022-11-21T13:07:12.167Z,69.72
2022-11-21T13:09:48.595Z,69.69
2022-11-21T13:12:28.420Z,69.83
2022-11-21T13:15:09.978Z,69.79
2022-11-21T13:17:50.786Z,69.81
2022-11-21T13:20:31.840Z,69.83
2022-11-21T13:23:06.508Z,69.79
2022-11-21T13:25:48.055Z,69.81
2022-11-21T13:28:38.881Z,69.80
2022-11-21T13:31:33.137Z,69.73
2022-11-21T13:34:05.533Z,69.74
2022-11-21T13:36:46.456Z,69.78
2022-11-21T13:39:38.403Z,69.64
2022-11-21T13:42:34.828Z,69.66
2022-11-21T13:45:40.960Z,69.69
2022-11-21T13:48:49.923Z,69.81
2022-11-21T13:51:51.645Z,69.91
2022-11-21T13:55:05.921Z,70.01
2022-11-21T13:57:54.386Z,70.12
2022-11-21T14:00:38.056Z,70.13
2022-11-21T14:03:41.696Z,70.19
2022-11-21T14:06:33.343Z,70.19
2022-11-21T14:09:17.816Z,70.27
2022-11-21T14:11:51.490Z,70.13
2022-11-21T14:14:30.435Z,70.10
2022-11-21T14:17:18.445Z,70.18
2022-11-21T14:19:50.412Z,70.03
2022-11-21T14:22:36.147Z,69.99
2022-11-21T14:25:17.960Z,69.93
2022-11-21T14:27:52.414Z,69.79
2022-11-21T14:30:35.833Z,69.77
2022-11-21T14:33:29.408Z,69.72
2022-11-21T14:36:04.633Z,69.61
2022-11-21T14:38:42.421Z,69.75
2022-11-21T14:41:34.452Z,69.59
2022-11-21T14:44:23.116Z,69.50
2022-11-21T14:47:10.013Z,69.51
2022-11-21T14:49:49.175Z,69.58
2022-11-21T14:52:23.826Z,69.63
2022-11-21T14:57:48.867Z,69.56
2022-11-21T15:00:57.474Z,69.60
2022-11-21T15:03:23.003Z,69.57
2022-11-21T15:06:05.831Z,69.51
2022-11-21T15:11:37.344Z,69.46
2022-11-21T15:14:19.453Z,69.48
2022-11-21T15:16:53.545Z,69.41
2022-11-21T15:19:27.508Z,69.44
2022-11-21T15:22:01.003Z,69.53
2022-11-21T15:24:40.256Z,69.42
2022-11-21T15:27:33.645Z,69.37
2022-11-21T15:30:23.105Z,69.40
2022-11-21T15:33:09.350Z,69.53
2022-11-21T15:35:56.797Z,69.47
2022-11-21T15:38:30.907Z,69.41
2022-11-21T15:41:24.994Z,69.53
2022-11-21T15:44:15.737Z,69.64
2022-11-21T15:46:47.360Z,69.72
2022-11-21T15:52:14.242Z,69.85
2022-11-21T15:54:47.174Z,69.82
2022-11-21T15:57:12.779Z,69.75
2022-11-21T15:59:53.043Z,70.06
2022-11-21T16:02:24.575Z,70.20
2022-11-21T16:04:56.149Z,70.29
2022-11-21T16:07:27.933Z,70.27
2022-11-21T16:09:59.513Z,70.39
2022-11-21T16:12:31.136Z,70.47
2022-11-21T16:15:02.693Z,70.51
2022-11-21T16:17:34.303Z,70.51
2022-11-21T16:20:08.607Z,70.58
2022-11-21T16:22:44.304Z,70.64
2022-11-21T16:25:19.357Z,70.68
2022-11-21T16:27:50.823Z,70.72
2022-11-21T16:30:22.660Z,70.75
2022-11-21T16:32:56.330Z,70.75
2022-11-21T16:35:26.380Z,70.74
2022-11-21T16:37:58.124Z,70.78
2022-11-21T16:40:29.674Z,70.93
2022-11-21T16:43:10.896Z,71.00
2022-11-21T16:45:42.419Z,71.04
2022-11-21T16:48:13.968Z,71.10
2022-11-21T16:50:46.649Z,71.08
2022-11-21T16:53:18.511Z,71.25
2022-11-21T16:55:50.012Z,71.17
2022-11-21T16:58:21.527Z,71.25
2022-11-21T17:00:53.102Z,71.12
2022-11-21T17:03:24.632Z,71.10
2022-11-21T17:06:00.784Z,71.22
2022-11-21T17:08:32.467Z,71.23
2022-11-21T17:11:13.978Z,71.18
2022-11-21T17:13:47.355Z,71.19
2022-11-21T17:16:20.912Z,71.13
2022-11-21T17:18:55.580Z,71.22
2022-11-21T17:21:28.604Z,71.21
2022-11-21T17:24:00.758Z,71.22
2022-11-21T17:26:32.557Z,71.25
2022-11-21T17:29:04.965Z,71.31
2022-11-21T17:31:37.071Z,71.38
2022-11-21T17:34:08.744Z,71.38
2022-11-21T17:36:40.321Z,71.54
2022-11-21T17:39:12.740Z,71.45
2022-11-21T17:41:44.938Z,71.65
2022-11-21T17:44:17.067Z,71.62
2022-11-21T17:46:48.795Z,71.75
2022-11-21T17:49:21.082Z,71.65
2022-11-21T17:51:56.623Z,71.68
2022-11-21T17:54:28.751Z,71.71
2022-11-21T17:57:00.918Z,71.74
2022-11-21T17:59:34.686Z,71.78
2022-11-21T18:02:06.526Z,71.75
2022-11-21T18:04:39.111Z,71.79
2022-11-21T18:07:11.049Z,71.87
2022-11-21T18:09:42.728Z,71.83
2022-11-21T18:12:14.259Z,71.80
2022-11-21T18:14:46.132Z,71.86
2022-11-21T18:17:17.650Z,71.85
2022-11-21T18:19:49.137Z,71.84
2022-11-21T18:22:23.759Z,71.94
2022-11-21T18:24:59.906Z,71.95
2022-11-21T18:27:31.642Z,72.03
2022-11-21T18:30:03.862Z,72.03
2022-11-21T18:32:35.599Z,72.20
2022-11-21T18:35:07.941Z,72.15
2022-11-21T18:37:39.541Z,72.13
2022-11-21T18:40:13.546Z,72.13
2022-11-21T18:42:45.331Z,72.13
2022-11-21T18:45:16.898Z,72.15
2022-11-21T18:47:48.528Z,72.11
2022-11-21T18:50:20.448Z,72.09
2022-11-21T18:52:51.916Z,72.02
2022-11-21T18:55:23.635Z,72.08
2022-11-21T18:57:55.157Z,72.11
2022-11-21T19:00:26.883Z,72.02
2022-11-21T19:02:58.502Z,72.08
2022-11-21T19:05:30.553Z,72.03
2022-11-21T19:08:02.149Z,72.03
2022-11-21T19:10:43.036Z,72.00
2022-11-21T19:13:15.456Z,72.08
2022-11-21T19:15:47.631Z,72.02
2022-11-21T19:18:19.133Z,72.05
2022-11-21T19:20:51.667Z,72.03
2022-11-21T19:23:23.146Z,72.08
2022-11-21T19:25:59.320Z,72.19
2022-11-21T19:28:31.404Z,72.19
2022-11-21T19:31:05.256Z,72.25
2022-11-21T19:33:36.862Z,72.23
2022-11-21T19:36:11.900Z,72.26
2022-11-21T19:38:47.691Z,72.28
2022-11-21T19:41:25.899Z,72.22
2022-11-21T19:43:58.872Z,72.21
2022-11-21T19:46:32.572Z,72.20
2022-11-21T19:49:05.634Z,72.30
2022-11-21T19:51:39.704Z,72.24
2022-11-21T19:54:13.309Z,72.39
2022-11-21T19:56:45.089Z,72.34
2022-11-21T19:59:16.804Z,72.37
2022-11-21T20:01:52.536Z,72.38
2022-11-21T20:04:24.649Z,72.36
2022-11-21T20:06:57.366Z,72.35
2022-11-21T20:09:33.380Z,72.40
2022-11-21T20:12:07.150Z,72.44
2022-11-21T20:14:38.666Z,72.45
2022-11-21T20:17:10.248Z,72.47
2022-11-21T20:19:45.323Z,72.54
2022-11-21T20:22:21.092Z,72.74
2022-11-21T20:24:52.599Z,72.64
2022-11-21T20:27:24.071Z,72.67
2022-11-21T20:29:55.580Z,72.72
2022-11-21T20:32:28.467Z,72.66
2022-11-21T20:35:00.036Z,72.72
2022-11-21T20:37:31.632Z,72.62
2022-11-21T20:40:03.187Z,72.62
2022-11-21T20:42:34.768Z,72.61
2022-11-21T20:47:59.374Z,72.69
2022-11-21T20:51:14.764Z,72.69
2022-11-21T20:53:51.988Z,72.72
2022-11-21T20:56:14.919Z,72.74
2022-11-21T20:58:47.329Z,72.75
2022-11-21T21:01:21.061Z,72.66
2022-11-21T21:03:52.753Z,72.70
2022-11-21T21:06:25.143Z,72.69
2022-11-21T21:08:56.775Z,72.81
2022-11-21T21:11:50.846Z,72.75
2022-11-21T21:14:20.278Z,72.83
2022-11-21T21:16:51.800Z,72.79
2022-11-21T21:19:23.571Z,72.82
2022-11-21T21:21:55.129Z,72.79
2022-11-21T21:24:27.762Z,72.98
2022-11-21T21:26:59.397Z,72.83
2022-11-21T21:29:31.107Z,72.79
2022-11-21T21:32:03.001Z,72.82
2022-11-21T21:34:34.516Z,72.73
2022-11-21T21:37:06.141Z,72.76
2022-11-21T21:39:37.663Z,72.76
2022-11-21T21:42:09.442Z,72.71
2022-11-21T21:44:41.005Z,72.66
2022-11-21T21:47:16.036Z,72.73
2022-11-21T21:49:47.535Z,72.70
2022-11-21T21:52:19.353Z,72.61
2022-11-21T21:54:50.865Z,72.42
2022-11-21T21:57:22.347Z,72.39
2022-11-21T21:59:53.906Z,72.28
2022-11-21T22:02:25.428Z,72.16
2022-11-21T22:04:56.947Z,72.07
2022-11-21T22:07:28.630Z,71.97
2022-11-21T22:10:02.084Z,71.90
2022-11-21T22:12:33.551Z,71.87
2022-11-21T22:15:05.607Z,72.00
2022-11-21T22:17:37.191Z,71.89
2022-11-21T22:20:10.467Z,71.79
2022-11-21T22:22:41.978Z,71.62
2022-11-21T22:25:13.747Z,71.48
2022-11-21T22:27:45.208Z,71.50
2022-11-21T22:30:17.520Z,71.60
2022-11-21T22:32:50.944Z,71.63
2022-11-21T22:35:22.429Z,71.57
2022-11-21T22:37:54.190Z,71.41
2022-11-21T22:40:25.717Z,71.41
2022-11-21T22:42:57.353Z,71.42
2022-11-21T22:45:28.847Z,71.50
2022-11-21T22:48:00.392Z,71.35
2022-11-21T22:50:31.943Z,71.30
2022-11-21T22:53:03.632Z,71.17
2022-11-21T22:55:35.147Z,70.99
2022-11-21T22:58:06.616Z,70.98
2022-11-21T23:00:38.723Z,70.86
2022-11-21T23:03:10.242Z,70.91
2022-11-21T23:05:41.949Z,70.81
2022-11-21T23:08:13.795Z,70.90
2022-11-21T23:10:45.359Z,70.98
2022-11-21T23:13:16.853Z,71.00
2022-11-21T23:15:48.473Z,71.22
2022-11-21T23:18:19.982Z,71.43
2022-11-21T23:20:51.676Z,71.52
2022-11-21T23:23:24.019Z,71.56
2022-11-21T23:25:55.855Z,71.70
2022-11-21T23:28:27.863Z,71.61
2022-11-21T23:30:59.633Z,71.74
2022-11-21T23:33:32.173Z,71.69
2022-11-21T23:36:03.620Z,71.56
2022-11-21T23:38:35.178Z,71.75
2022-11-21T23:41:06.743Z,71.68
2022-11-21T23:43:38.444Z,71.54
2022-11-21T23:46:09.915Z,71.64
2022-11-21T23:48:41.453Z,71.44
2022-11-21T23:51:13.048Z,71.78
2022-11-21T23:53:44.576Z,71.89
2022-11-21T23:56:16.185Z,71.79
2022-11-21T23:58:47.858Z,72.07
